sensor_id;sensor_type;location;lat;lon;timestamp;P1;durP1;ratioP1;P2;durP2;ratioP2
10144;SDS011;5113;41.822;23.564;2023-04-25T00:00:32;2.50;;;2.40;;
10144;SDS011;5113;41.822;23.564;2023-04-25T00:03:39;2.40;;;2.30;;
10144;SDS011;5113;41.822;23.564;2023-04-25T00:06:45;3.10;;;2.77;;
10144;SDS011;5113;41.822;23.564;2023-04-25T00:09:53;4.27;;;2.57;;
10144;SDS011;5113;41.822;23.564;2023-04-25T00:13:00;2.30;;;2.20;;
10144;SDS011;5113;41.822;23.564;2023-04-25T00:16:07;2.53;;;2.40;;
10144;SDS011;5113;41.822;23.564;2023-04-25T00:19:13;2.40;;;2.30;;
10144;SDS011;5113;41.822;23.564;2023-04-25T00:22:20;2.20;;;2.10;;
10144;SDS011;5113;41.822;23.564;2023-04-25T00:25:28;2.47;;;2.37;;
10144;SDS011;5113;41.822;23.564;2023-04-25T00:28:34;2.90;;;2.70;;
10144;SDS011;5113;41.822;23.564;2023-04-25T00:31:40;2.47;;;2.37;;
10144;SDS011;5113;41.822;23.564;2023-04-25T00:34:46;2.50;;;2.37;;
10144;SDS011;5113;41.822;23.564;2023-04-25T00:37:53;2.30;;;2.20;;
10144;SDS011;5113;41.822;23.564;2023-04-25T00:41:01;2.30;;;2.17;;
10144;SDS011;5113;41.822;23.564;2023-04-25T00:44:08;2.80;;;2.60;;
10144;SDS011;5113;41.822;23.564;2023-04-25T00:47:15;2.27;;;2.17;;
10144;SDS011;5113;41.822;23.564;2023-04-25T00:50:21;2.30;;;2.20;;
10144;SDS011;5113;41.822;23.564;2023-04-25T00:53:28;2.50;;;2.40;;
10144;SDS011;5113;41.822;23.564;2023-04-25T00:56:37;2.27;;;2.17;;
10144;SDS011;5113;41.822;23.564;2023-04-25T00:59:44;1.70;;;1.70;;
10144;SDS011;5113;41.822;23.564;2023-04-25T01:02:51;3.30;;;3.00;;
10144;SDS011;5113;41.822;23.564;2023-04-25T01:05:58;2.80;;;2.60;;
10144;SDS011;5113;41.822;23.564;2023-04-25T01:09:04;3.77;;;3.47;;
10144;SDS011;5113;41.822;23.564;2023-04-25T01:12:12;3.73;;;2.97;;
10144;SDS011;5113;41.822;23.564;2023-04-25T01:15:19;2.63;;;2.43;;
10144;SDS011;5113;41.822;23.564;2023-04-25T01:18:25;2.40;;;2.30;;
10144;SDS011;5113;41.822;23.564;2023-04-25T01:21:33;1.97;;;1.87;;
10144;SDS011;5113;41.822;23.564;2023-04-25T01:24:39;4.30;;;2.50;;
10144;SDS011;5113;41.822;23.564;2023-04-25T01:27:46;2.23;;;2.13;;
10144;SDS011;5113;41.822;23.564;2023-04-25T01:30:52;3.40;;;3.10;;
10144;SDS011;5113;41.822;23.564;2023-04-25T01:34:00;3.20;;;2.90;;
10144;SDS011;5113;41.822;23.564;2023-04-25T01:37:08;3.00;;;2.47;;
10144;SDS011;5113;41.822;23.564;2023-04-25T01:40:14;2.80;;;2.60;;
10144;SDS011;5113;41.822;23.564;2023-04-25T01:43:21;2.60;;;2.40;;
10144;SDS011;5113;41.822;23.564;2023-04-25T01:46:28;3.23;;;2.90;;
10144;SDS011;5113;41.822;23.564;2023-04-25T01:49:35;2.63;;;2.43;;
10144;SDS011;5113;41.822;23.564;2023-04-25T01:52:43;2.70;;;2.53;;
10144;SDS011;5113;41.822;23.564;2023-04-25T01:55:49;2.50;;;2.40;;
10144;SDS011;5113;41.822;23.564;2023-04-25T01:58:55;2.53;;;2.33;;
10144;SDS011;5113;41.822;23.564;2023-04-25T02:02:03;3.17;;;2.87;;
10144;SDS011;5113;41.822;23.564;2023-04-25T02:05:08;2.60;;;2.40;;
10144;SDS011;5113;41.822;23.564;2023-04-25T02:08:16;2.80;;;2.60;;
10144;SDS011;5113;41.822;23.564;2023-04-25T02:11:23;2.87;;;2.67;;
10144;SDS011;5113;41.822;23.564;2023-04-25T02:14:29;3.03;;;2.73;;
10144;SDS011;5113;41.822;23.564;2023-04-25T02:17:36;3.17;;;2.97;;
10144;SDS011;5113;41.822;23.564;2023-04-25T02:20:42;2.97;;;2.50;;
10144;SDS011;5113;41.822;23.564;2023-04-25T02:23:50;3.37;;;2.67;;
10144;SDS011;5113;41.822;23.564;2023-04-25T02:26:57;4.07;;;2.60;;
10144;SDS011;5113;41.822;23.564;2023-04-25T02:30:04;3.70;;;3.40;;
10144;SDS011;5113;41.822;23.564;2023-04-25T02:33:11;3.83;;;3.33;;
10144;SDS011;5113;41.822;23.564;2023-04-25T02:36:18;3.07;;;2.83;;
10144;SDS011;5113;41.822;23.564;2023-04-25T02:39:25;5.53;;;4.30;;
10144;SDS011;5113;41.822;23.564;2023-04-25T02:42:32;5.73;;;4.00;;
10144;SDS011;5113;41.822;23.564;2023-04-25T02:45:38;6.13;;;3.53;;
10144;SDS011;5113;41.822;23.564;2023-04-25T02:48:45;3.10;;;2.90;;
10144;SDS011;5113;41.822;23.564;2023-04-25T02:51:51;2.73;;;2.60;;
10144;SDS011;5113;41.822;23.564;2023-04-25T02:54:59;2.33;;;2.23;;
10144;SDS011;5113;41.822;23.564;2023-04-25T02:58:05;2.63;;;2.53;;
10144;SDS011;5113;41.822;23.564;2023-04-25T03:01:11;3.83;;;3.00;;
10144;SDS011;5113;41.822;23.564;2023-04-25T03:04:17;3.57;;;3.27;;
10144;SDS011;5113;41.822;23.564;2023-04-25T03:07:25;3.03;;;2.83;;
10144;SDS011;5113;41.822;23.564;2023-04-25T03:10:32;3.20;;;3.00;;
10144;SDS011;5113;41.822;23.564;2023-04-25T03:13:39;4.50;;;3.33;;
10144;SDS011;5113;41.822;23.564;2023-04-25T03:16:45;3.80;;;3.50;;
10144;SDS011;5113;41.822;23.564;2023-04-25T03:19:51;3.03;;;2.90;;
10144;SDS011;5113;41.822;23.564;2023-04-25T03:22:57;2.80;;;2.70;;
10144;SDS011;5113;41.822;23.564;2023-04-25T03:26:05;2.97;;;2.80;;
10144;SDS011;5113;41.822;23.564;2023-04-25T03:29:11;5.17;;;4.77;;
10144;SDS011;5113;41.822;23.564;2023-04-25T03:32:18;5.43;;;5.03;;
10144;SDS011;5113;41.822;23.564;2023-04-25T03:35:25;27.33;;;13.73;;
10144;SDS011;5113;41.822;23.564;2023-04-25T03:38:31;43.27;;;23.40;;
10144;SDS011;5113;41.822;23.564;2023-04-25T03:41:39;27.83;;;16.20;;
10144;SDS011;5113;41.822;23.564;2023-04-25T03:44:46;20.70;;;13.60;;
10144;SDS011;5113;41.822;23.564;2023-04-25T03:47:52;29.70;;;18.37;;
10144;SDS011;5113;41.822;23.564;2023-04-25T03:50:59;31.63;;;22.70;;
10144;SDS011;5113;41.822;23.564;2023-04-25T03:54:05;19.77;;;17.67;;
10144;SDS011;5113;41.822;23.564;2023-04-25T03:57:13;8.93;;;7.53;;
10144;SDS011;5113;41.822;23.564;2023-04-25T04:00:20;26.27;;;18.47;;
10144;SDS011;5113;41.822;23.564;2023-04-25T04:03:26;5.60;;;5.10;;
10144;SDS011;5113;41.822;23.564;2023-04-25T04:06:33;7.20;;;6.60;;
10144;SDS011;5113;41.822;23.564;2023-04-25T04:09:41;3.93;;;3.63;;
10144;SDS011;5113;41.822;23.564;2023-04-25T04:12:48;4.93;;;4.53;;
10144;SDS011;5113;41.822;23.564;2023-04-25T04:15:55;8.77;;;7.13;;
10144;SDS011;5113;41.822;23.564;2023-04-25T04:19:02;8.17;;;7.47;;
10144;SDS011;5113;41.822;23.564;2023-04-25T04:22:08;16.40;;;11.87;;
10144;SDS011;5113;41.822;23.564;2023-04-25T04:25:14;27.90;;;15.67;;
10144;SDS011;5113;41.822;23.564;2023-04-25T04:28:22;21.43;;;11.93;;
10144;SDS011;5113;41.822;23.564;2023-04-25T04:31:29;15.13;;;8.37;;
10144;SDS011;5113;41.822;23.564;2023-04-25T04:34:36;71.40;;;29.47;;
10144;SDS011;5113;41.822;23.564;2023-04-25T04:37:43;62.90;;;28.07;;
10144;SDS011;5113;41.822;23.564;2023-04-25T04:40:50;51.80;;;22.80;;
10144;SDS011;5113;41.822;23.564;2023-04-25T04:43:58;32.57;;;14.43;;
10144;SDS011;5113;41.822;23.564;2023-04-25T04:47:05;92.27;;;37.00;;
10144;SDS011;5113;41.822;23.564;2023-04-25T04:50:12;70.13;;;28.70;;
10144;SDS011;5113;41.822;23.564;2023-04-25T04:53:19;38.77;;;17.43;;
10144;SDS011;5113;41.822;23.564;2023-04-25T04:56:25;12.20;;;7.33;;
10144;SDS011;5113;41.822;23.564;2023-04-25T04:59:34;23.53;;;11.27;;
10144;SDS011;5113;41.822;23.564;2023-04-25T05:02:40;27.90;;;14.80;;
10144;SDS011;5113;41.822;23.564;2023-04-25T05:05:47;10.33;;;6.80;;
10144;SDS011;5113;41.822;23.564;2023-04-25T05:08:53;12.47;;;7.33;;
10144;SDS011;5113;41.822;23.564;2023-04-25T05:11:59;7.13;;;6.37;;
10144;SDS011;5113;41.822;23.564;2023-04-25T05:15:08;17.47;;;10.60;;
10144;SDS011;5113;41.822;23.564;2023-04-25T05:18:15;38.67;;;20.10;;
10144;SDS011;5113;41.822;23.564;2023-04-25T05:21:21;40.47;;;21.67;;
10144;SDS011;5113;41.822;23.564;2023-04-25T05:24:27;24.53;;;13.37;;
10144;SDS011;5113;41.822;23.564;2023-04-25T05:27:35;26.63;;;15.63;;
10144;SDS011;5113;41.822;23.564;2023-04-25T05:30:43;28.67;;;16.03;;
10144;SDS011;5113;41.822;23.564;2023-04-25T05:33:49;23.83;;;13.70;;
10144;SDS011;5113;41.822;23.564;2023-04-25T05:36:56;18.63;;;11.00;;
10144;SDS011;5113;41.822;23.564;2023-04-25T05:40:02;17.77;;;12.33;;
10144;SDS011;5113;41.822;23.564;2023-04-25T05:43:11;14.60;;;9.27;;
10144;SDS011;5113;41.822;23.564;2023-04-25T05:46:19;18.23;;;10.97;;
10144;SDS011;5113;41.822;23.564;2023-04-25T05:49:25;18.83;;;12.07;;
10144;SDS011;5113;41.822;23.564;2023-04-25T05:52:32;9.07;;;5.67;;
10144;SDS011;5113;41.822;23.564;2023-04-25T05:55:39;5.90;;;5.23;;
10144;SDS011;5113;41.822;23.564;2023-04-25T05:58:45;5.47;;;3.80;;
10144;SDS011;5113;41.822;23.564;2023-04-25T06:01:53;4.43;;;4.10;;
10144;SDS011;5113;41.822;23.564;2023-04-25T06:04:59;16.30;;;12.00;;
10144;SDS011;5113;41.822;23.564;2023-04-25T06:08:08;7.33;;;6.33;;
10144;SDS011;5113;41.822;23.564;2023-04-25T06:11:14;4.67;;;4.27;;
10144;SDS011;5113;41.822;23.564;2023-04-25T06:14:20;3.83;;;3.53;;
10144;SDS011;5113;41.822;23.564;2023-04-25T06:17:33;3.33;;;3.13;;
10144;SDS011;5113;41.822;23.564;2023-04-25T06:20:40;3.87;;;3.57;;
10144;SDS011;5113;41.822;23.564;2023-04-25T06:23:46;3.00;;;2.80;;
10144;SDS011;5113;41.822;23.564;2023-04-25T06:26:53;3.20;;;3.00;;
10144;SDS011;5113;41.822;23.564;2023-04-25T06:30:00;9.97;;;6.97;;
10144;SDS011;5113;41.822;23.564;2023-04-25T06:33:07;4.87;;;4.47;;
10144;SDS011;5113;41.822;23.564;2023-04-25T06:36:14;3.00;;;2.80;;
10144;SDS011;5113;41.822;23.564;2023-04-25T06:39:20;4.03;;;3.73;;
10144;SDS011;5113;41.822;23.564;2023-04-25T06:42:27;4.63;;;4.23;;
10144;SDS011;5113;41.822;23.564;2023-04-25T06:45:33;2.87;;;2.67;;
10144;SDS011;5113;41.822;23.564;2023-04-25T06:48:41;5.33;;;4.60;;
10144;SDS011;5113;41.822;23.564;2023-04-25T06:51:47;3.00;;;2.30;;
10144;SDS011;5113;41.822;23.564;2023-04-25T06:54:54;4.80;;;3.60;;
10144;SDS011;5113;41.822;23.564;2023-04-25T06:58:00;5.00;;;3.70;;
10144;SDS011;5113;41.822;23.564;2023-04-25T07:01:07;4.00;;;3.60;;
10144;SDS011;5113;41.822;23.564;2023-04-25T07:04:16;3.27;;;2.90;;
10144;SDS011;5113;41.822;23.564;2023-04-25T07:07:22;6.40;;;5.90;;
10144;SDS011;5113;41.822;23.564;2023-04-25T07:10:29;3.37;;;2.90;;
10144;SDS011;5113;41.822;23.564;2023-04-25T07:13:35;3.10;;;2.93;;
10144;SDS011;5113;41.822;23.564;2023-04-25T07:16:42;3.80;;;3.50;;
10144;SDS011;5113;41.822;23.564;2023-04-25T07:19:50;3.60;;;3.40;;
10144;SDS011;5113;41.822;23.564;2023-04-25T07:22:56;4.90;;;4.43;;
10144;SDS011;5113;41.822;23.564;2023-04-25T07:26:03;4.60;;;4.17;;
10144;SDS011;5113;41.822;23.564;2023-04-25T07:29:10;4.20;;;2.97;;
10144;SDS011;5113;41.822;23.564;2023-04-25T07:32:16;4.50;;;4.10;;
10144;SDS011;5113;41.822;23.564;2023-04-25T07:35:24;5.60;;;4.90;;
10144;SDS011;5113;41.822;23.564;2023-04-25T07:38:30;4.73;;;4.33;;
10144;SDS011;5113;41.822;23.564;2023-04-25T07:41:36;4.20;;;3.90;;
10144;SDS011;5113;41.822;23.564;2023-04-25T07:44:42;3.83;;;3.53;;
10144;SDS011;5113;41.822;23.564;2023-04-25T07:47:48;4.73;;;4.03;;
10144;SDS011;5113;41.822;23.564;2023-04-25T07:50:56;4.77;;;4.37;;
10144;SDS011;5113;41.822;23.564;2023-04-25T07:54:02;5.53;;;4.73;;
10144;SDS011;5113;41.822;23.564;2023-04-25T07:57:10;3.87;;;3.57;;
10144;SDS011;5113;41.822;23.564;2023-04-25T08:00:18;3.70;;;3.40;;
10144;SDS011;5113;41.822;23.564;2023-04-25T08:03:25;3.07;;;2.87;;
10144;SDS011;5113;41.822;23.564;2023-04-25T08:06:33;3.70;;;3.40;;
10144;SDS011;5113;41.822;23.564;2023-04-25T08:09:40;3.40;;;3.20;;
10144;SDS011;5113;41.822;23.564;2023-04-25T08:12:47;3.20;;;3.00;;
10144;SDS011;5113;41.822;23.564;2023-04-25T08:15:53;2.90;;;2.80;;
10144;SDS011;5113;41.822;23.564;2023-04-25T08:19:00;2.80;;;2.60;;
10144;SDS011;5113;41.822;23.564;2023-04-25T08:22:07;3.20;;;2.90;;
10144;SDS011;5113;41.822;23.564;2023-04-25T08:28:39;3.60;;;3.40;;
10144;SDS011;5113;41.822;23.564;2023-04-25T08:31:46;5.03;;;4.60;;
10144;SDS011;5113;41.822;23.564;2023-04-25T08:34:53;5.80;;;5.20;;
10144;SDS011;5113;41.822;23.564;2023-04-25T08:38:01;3.63;;;3.10;;
10144;SDS011;5113;41.822;23.564;2023-04-25T08:41:07;3.50;;;3.20;;
10144;SDS011;5113;41.822;23.564;2023-04-25T08:44:16;4.03;;;3.73;;
10144;SDS011;5113;41.822;23.564;2023-04-25T08:47:22;3.13;;;2.93;;
10144;SDS011;5113;41.822;23.564;2023-04-25T08:50:30;2.77;;;2.60;;
10144;SDS011;5113;41.822;23.564;2023-04-25T08:53:38;3.20;;;2.93;;
10144;SDS011;5113;41.822;23.564;2023-04-25T08:56:47;4.33;;;3.93;;
10144;SDS011;5113;41.822;23.564;2023-04-25T08:59:53;4.30;;;3.97;;
10144;SDS011;5113;41.822;23.564;2023-04-25T09:03:01;5.33;;;4.83;;
10144;SDS011;5113;41.822;23.564;2023-04-25T09:06:09;3.50;;;3.20;;
10144;SDS011;5113;41.822;23.564;2023-04-25T09:09:18;3.50;;;3.20;;
10144;SDS011;5113;41.822;23.564;2023-04-25T09:12:24;4.17;;;3.87;;
10144;SDS011;5113;41.822;23.564;2023-04-25T09:15:32;2.90;;;2.70;;
10144;SDS011;5113;41.822;23.564;2023-04-25T09:18:39;4.27;;;3.47;;
10144;SDS011;5113;41.822;23.564;2023-04-25T09:21:53;3.00;;;2.80;;
10144;SDS011;5113;41.822;23.564;2023-04-25T09:25:03;4.00;;;3.60;;
10144;SDS011;5113;41.822;23.564;2023-04-25T09:28:13;3.20;;;2.97;;
10144;SDS011;5113;41.822;23.564;2023-04-25T09:31:23;4.07;;;3.00;;
10144;SDS011;5113;41.822;23.564;2023-04-25T09:34:29;2.70;;;2.50;;
10144;SDS011;5113;41.822;23.564;2023-04-25T09:37:45;2.70;;;2.50;;
10144;SDS011;5113;41.822;23.564;2023-04-25T09:40:53;3.60;;;3.30;;
10144;SDS011;5113;41.822;23.564;2023-04-25T09:44:00;3.00;;;2.80;;
10144;SDS011;5113;41.822;23.564;2023-04-25T09:47:09;5.07;;;2.67;;
10144;SDS011;5113;41.822;23.564;2023-04-25T09:50:16;2.30;;;2.20;;
10144;SDS011;5113;41.822;23.564;2023-04-25T09:53:24;2.57;;;2.37;;
10144;SDS011;5113;41.822;23.564;2023-04-25T09:56:31;2.13;;;2.03;;
10144;SDS011;5113;41.822;23.564;2023-04-25T09:59:43;3.17;;;2.93;;
10144;SDS011;5113;41.822;23.564;2023-04-25T10:02:50;2.90;;;2.70;;
10144;SDS011;5113;41.822;23.564;2023-04-25T10:05:59;2.97;;;2.33;;
10144;SDS011;5113;41.822;23.564;2023-04-25T10:09:07;2.47;;;2.37;;
10144;SDS011;5113;41.822;23.564;2023-04-25T10:12:15;2.70;;;2.50;;
10144;SDS011;5113;41.822;23.564;2023-04-25T10:15:22;2.27;;;2.17;;
10144;SDS011;5113;41.822;23.564;2023-04-25T10:18:29;2.17;;;2.07;;
10144;SDS011;5113;41.822;23.564;2023-04-25T10:21:37;2.20;;;2.00;;
10144;SDS011;5113;41.822;23.564;2023-04-25T10:24:51;3.63;;;2.30;;
10144;SDS011;5113;41.822;23.564;2023-04-25T10:28:00;3.30;;;3.03;;
10144;SDS011;5113;41.822;23.564;2023-04-25T10:31:08;3.70;;;3.30;;
10144;SDS011;5113;41.822;23.564;2023-04-25T10:34:15;2.60;;;2.07;;
10144;SDS011;5113;41.822;23.564;2023-04-25T10:37:21;3.10;;;2.30;;
10144;SDS011;5113;41.822;23.564;2023-04-25T10:40:29;6.80;;;2.60;;
10144;SDS011;5113;41.822;23.564;2023-04-25T10:43:38;2.10;;;2.00;;
10144;SDS011;5113;41.822;23.564;2023-04-25T10:46:45;2.00;;;1.90;;
10144;SDS011;5113;41.822;23.564;2023-04-25T10:49:51;1.70;;;1.70;;
10144;SDS011;5113;41.822;23.564;2023-04-25T10:53:01;2.00;;;1.90;;
10144;SDS011;5113;41.822;23.564;2023-04-25T10:56:20;4.03;;;3.07;;
10144;SDS011;5113;41.822;23.564;2023-04-25T10:59:29;1.90;;;1.80;;
10144;SDS011;5113;41.822;23.564;2023-04-25T11:02:37;2.63;;;1.90;;
10144;SDS011;5113;41.822;23.564;2023-04-25T11:05:47;2.80;;;2.67;;
10144;SDS011;5113;41.822;23.564;2023-04-25T11:09:01;2.10;;;2.00;;
10144;SDS011;5113;41.822;23.564;2023-04-25T11:12:08;2.90;;;2.07;;
10144;SDS011;5113;41.822;23.564;2023-04-25T11:15:17;2.20;;;2.10;;
10144;SDS011;5113;41.822;23.564;2023-04-25T11:18:25;3.27;;;2.97;;
10144;SDS011;5113;41.822;23.564;2023-04-25T11:21:32;2.77;;;2.17;;
10144;SDS011;5113;41.822;23.564;2023-04-25T11:24:38;1.80;;;1.70;;
10144;SDS011;5113;41.822;23.564;2023-04-25T11:27:51;3.60;;;2.23;;
10144;SDS011;5113;41.822;23.564;2023-04-25T11:30:59;2.30;;;2.20;;
10144;SDS011;5113;41.822;23.564;2023-04-25T11:34:05;2.13;;;1.90;;
10144;SDS011;5113;41.822;23.564;2023-04-25T11:37:11;1.90;;;1.80;;
10144;SDS011;5113;41.822;23.564;2023-04-25T11:40:18;2.43;;;2.33;;
10144;SDS011;5113;41.822;23.564;2023-04-25T11:43:25;2.97;;;2.10;;
10144;SDS011;5113;41.822;23.564;2023-04-25T11:46:34;3.77;;;2.60;;
10144;SDS011;5113;41.822;23.564;2023-04-25T11:49:41;3.23;;;2.40;;
10144;SDS011;5113;41.822;23.564;2023-04-25T11:52:47;2.20;;;2.10;;
10144;SDS011;5113;41.822;23.564;2023-04-25T11:55:54;3.20;;;2.90;;
10144;SDS011;5113;41.822;23.564;2023-04-25T11:59:01;2.17;;;2.07;;
10144;SDS011;5113;41.822;23.564;2023-04-25T12:02:09;3.07;;;2.30;;
10144;SDS011;5113;41.822;23.564;2023-04-25T12:05:30;3.10;;;2.90;;
10144;SDS011;5113;41.822;23.564;2023-04-25T12:08:39;3.40;;;3.10;;
10144;SDS011;5113;41.822;23.564;2023-04-25T12:12:05;2.70;;;2.50;;
10144;SDS011;5113;41.822;23.564;2023-04-25T12:15:15;2.30;;;2.10;;
10144;SDS011;5113;41.822;23.564;2023-04-25T12:18:25;2.60;;;2.40;;
10144;SDS011;5113;41.822;23.564;2023-04-25T12:21:32;3.83;;;3.50;;
10144;SDS011;5113;41.822;23.564;2023-04-25T12:24:47;2.50;;;2.30;;
10144;SDS011;5113;41.822;23.564;2023-04-25T12:27:53;8.23;;;6.43;;
10144;SDS011;5113;41.822;23.564;2023-04-25T12:31:00;2.47;;;2.37;;
10144;SDS011;5113;41.822;23.564;2023-04-25T12:34:09;2.07;;;1.97;;
10144;SDS011;5113;41.822;23.564;2023-04-25T12:37:15;2.90;;;2.70;;
10144;SDS011;5113;41.822;23.564;2023-04-25T12:40:21;2.00;;;1.90;;
10144;SDS011;5113;41.822;23.564;2023-04-25T12:43:28;2.20;;;2.10;;
10144;SDS011;5113;41.822;23.564;2023-04-25T12:46:35;2.70;;;2.47;;
10144;SDS011;5113;41.822;23.564;2023-04-25T12:49:43;2.70;;;2.33;;
10144;SDS011;5113;41.822;23.564;2023-04-25T12:52:50;1.90;;;1.80;;
10144;SDS011;5113;41.822;23.564;2023-04-25T12:55:56;2.23;;;2.00;;
10144;SDS011;5113;41.822;23.564;2023-04-25T12:59:02;2.37;;;2.27;;
10144;SDS011;5113;41.822;23.564;2023-04-25T13:02:09;5.60;;;2.97;;
10144;SDS011;5113;41.822;23.564;2023-04-25T13:05:17;4.90;;;4.33;;
10144;SDS011;5113;41.822;23.564;2023-04-25T13:08:23;5.43;;;3.30;;
10144;SDS011;5113;41.822;23.564;2023-04-25T13:11:29;2.40;;;2.20;;
10144;SDS011;5113;41.822;23.564;2023-04-25T13:14:35;3.37;;;2.77;;
10144;SDS011;5113;41.822;23.564;2023-04-25T13:17:42;3.00;;;1.90;;
10144;SDS011;5113;41.822;23.564;2023-04-25T13:20:49;4.00;;;2.10;;
10144;SDS011;5113;41.822;23.564;2023-04-25T13:23:56;2.80;;;2.60;;
10144;SDS011;5113;41.822;23.564;2023-04-25T13:27:02;3.30;;;2.30;;
10144;SDS011;5113;41.822;23.564;2023-04-25T13:30:09;2.93;;;1.97;;
10144;SDS011;5113;41.822;23.564;2023-04-25T13:33:15;2.77;;;2.07;;
10144;SDS011;5113;41.822;23.564;2023-04-25T13:36:23;2.13;;;2.03;;
10144;SDS011;5113;41.822;23.564;2023-04-25T13:39:30;2.10;;;2.00;;
10144;SDS011;5113;41.822;23.564;2023-04-25T13:42:37;2.80;;;2.70;;
10144;SDS011;5113;41.822;23.564;2023-04-25T13:45:45;3.67;;;3.37;;
10144;SDS011;5113;41.822;23.564;2023-04-25T13:48:52;5.13;;;4.37;;
10144;SDS011;5113;41.822;23.564;2023-04-25T13:52:07;4.23;;;2.70;;
10144;SDS011;5113;41.822;23.564;2023-04-25T13:55:13;8.03;;;5.37;;
10144;SDS011;5113;41.822;23.564;2023-04-25T13:58:20;5.87;;;4.90;;
10144;SDS011;5113;41.822;23.564;2023-04-25T14:01:26;4.10;;;3.77;;
10144;SDS011;5113;41.822;23.564;2023-04-25T14:04:35;15.63;;;9.47;;
10144;SDS011;5113;41.822;23.564;2023-04-25T14:07:42;24.60;;;15.87;;
10144;SDS011;5113;41.822;23.564;2023-04-25T14:10:48;6.17;;;4.83;;
10144;SDS011;5113;41.822;23.564;2023-04-25T14:13:54;3.43;;;3.13;;
10144;SDS011;5113;41.822;23.564;2023-04-25T14:17:01;8.07;;;6.87;;
10144;SDS011;5113;41.822;23.564;2023-04-25T14:20:08;8.70;;;6.40;;
10144;SDS011;5113;41.822;23.564;2023-04-25T14:23:17;12.83;;;7.33;;
10144;SDS011;5113;41.822;23.564;2023-04-25T14:26:23;27.40;;;15.97;;
10144;SDS011;5113;41.822;23.564;2023-04-25T14:29:29;8.47;;;5.90;;
10144;SDS011;5113;41.822;23.564;2023-04-25T14:32:35;31.30;;;18.03;;
10144;SDS011;5113;41.822;23.564;2023-04-25T14:35:41;20.37;;;13.53;;
10144;SDS011;5113;41.822;23.564;2023-04-25T14:38:49;11.50;;;8.43;;
10144;SDS011;5113;41.822;23.564;2023-04-25T14:41:55;9.90;;;6.43;;
10144;SDS011;5113;41.822;23.564;2023-04-25T14:45:02;2.67;;;2.47;;
10144;SDS011;5113;41.822;23.564;2023-04-25T14:48:09;9.57;;;5.57;;
10144;SDS011;5113;41.822;23.564;2023-04-25T14:51:15;8.53;;;5.63;;
10144;SDS011;5113;41.822;23.564;2023-04-25T14:54:23;8.27;;;6.53;;
10144;SDS011;5113;41.822;23.564;2023-04-25T14:57:29;15.83;;;8.13;;
10144;SDS011;5113;41.822;23.564;2023-04-25T15:00:35;5.73;;;4.33;;
10144;SDS011;5113;41.822;23.564;2023-04-25T15:03:42;41.97;;;18.33;;
10144;SDS011;5113;41.822;23.564;2023-04-25T15:06:49;10.53;;;6.30;;
10144;SDS011;5113;41.822;23.564;2023-04-25T15:09:57;18.43;;;8.97;;
10144;SDS011;5113;41.822;23.564;2023-04-25T15:13:03;5.73;;;5.17;;
10144;SDS011;5113;41.822;23.564;2023-04-25T15:16:10;8.57;;;6.77;;
10144;SDS011;5113;41.822;23.564;2023-04-25T15:19:16;18.87;;;12.73;;
10144;SDS011;5113;41.822;23.564;2023-04-25T15:22:22;12.17;;;7.23;;
10144;SDS011;5113;41.822;23.564;2023-04-25T15:25:30;5.97;;;4.83;;
10144;SDS011;5113;41.822;23.564;2023-04-25T15:28:37;6.10;;;4.90;;
10144;SDS011;5113;41.822;23.564;2023-04-25T15:31:43;10.33;;;7.30;;
10144;SDS011;5113;41.822;23.564;2023-04-25T15:34:49;6.93;;;4.43;;
10144;SDS011;5113;41.822;23.564;2023-04-25T15:37:56;5.77;;;3.80;;
10144;SDS011;5113;41.822;23.564;2023-04-25T15:41:04;2.83;;;2.50;;
10144;SDS011;5113;41.822;23.564;2023-04-25T15:44:11;2.80;;;2.60;;
10144;SDS011;5113;41.822;23.564;2023-04-25T15:47:17;6.33;;;4.30;;
10144;SDS011;5113;41.822;23.564;2023-04-25T15:50:23;4.30;;;3.70;;
10144;SDS011;5113;41.822;23.564;2023-04-25T15:53:29;24.70;;;14.23;;
10144;SDS011;5113;41.822;23.564;2023-04-25T15:56:37;7.50;;;5.30;;
10144;SDS011;5113;41.822;23.564;2023-04-25T15:59:43;8.13;;;5.20;;
10144;SDS011;5113;41.822;23.564;2023-04-25T16:02:49;4.60;;;4.20;;
10144;SDS011;5113;41.822;23.564;2023-04-25T16:05:56;7.77;;;5.27;;
10144;SDS011;5113;41.822;23.564;2023-04-25T16:09:03;7.60;;;5.20;;
10144;SDS011;5113;41.822;23.564;2023-04-25T16:12:12;11.50;;;7.77;;
10144;SDS011;5113;41.822;23.564;2023-04-25T16:15:18;8.33;;;5.17;;
10144;SDS011;5113;41.822;23.564;2023-04-25T16:18:25;9.20;;;5.67;;
10144;SDS011;5113;41.822;23.564;2023-04-25T16:21:31;25.10;;;15.77;;
10144;SDS011;5113;41.822;23.564;2023-04-25T16:24:37;39.23;;;24.23;;
10144;SDS011;5113;41.822;23.564;2023-04-25T16:27:45;42.67;;;26.23;;
10144;SDS011;5113;41.822;23.564;2023-04-25T16:30:51;43.53;;;22.20;;
10144;SDS011;5113;41.822;23.564;2023-04-25T16:33:58;40.47;;;23.37;;
10144;SDS011;5113;41.822;23.564;2023-04-25T16:37:04;18.40;;;11.30;;
10144;SDS011;5113;41.822;23.564;2023-04-25T16:40:11;13.77;;;9.60;;
10144;SDS011;5113;41.822;23.564;2023-04-25T16:43:19;15.67;;;11.03;;
10144;SDS011;5113;41.822;23.564;2023-04-25T16:46:25;23.67;;;13.80;;
10144;SDS011;5113;41.822;23.564;2023-04-25T16:49:32;7.53;;;6.73;;
10144;SDS011;5113;41.822;23.564;2023-04-25T16:52:38;16.13;;;10.60;;
10144;SDS011;5113;41.822;23.564;2023-04-25T16:55:47;27.43;;;18.90;;
10144;SDS011;5113;41.822;23.564;2023-04-25T16:58:55;18.00;;;10.50;;
10144;SDS011;5113;41.822;23.564;2023-04-25T17:02:01;7.50;;;5.73;;
10144;SDS011;5113;41.822;23.564;2023-04-25T17:05:08;9.87;;;7.77;;
10144;SDS011;5113;41.822;23.564;2023-04-25T17:08:14;9.83;;;8.67;;
10144;SDS011;5113;41.822;23.564;2023-04-25T17:11:20;4.97;;;4.47;;
10144;SDS011;5113;41.822;23.564;2023-04-25T17:14:27;9.40;;;5.87;;
10144;SDS011;5113;41.822;23.564;2023-04-25T17:17:35;6.17;;;4.70;;
10144;SDS011;5113;41.822;23.564;2023-04-25T17:20:41;7.57;;;5.53;;
10144;SDS011;5113;41.822;23.564;2023-04-25T17:23:48;9.77;;;6.53;;
10144;SDS011;5113;41.822;23.564;2023-04-25T17:26:54;17.47;;;9.63;;
10144;SDS011;5113;41.822;23.564;2023-04-25T17:30:02;12.03;;;8.53;;
10144;SDS011;5113;41.822;23.564;2023-04-25T17:33:09;11.27;;;6.30;;
10144;SDS011;5113;41.822;23.564;2023-04-25T17:36:15;20.93;;;11.97;;
10144;SDS011;5113;41.822;23.564;2023-04-25T17:39:22;12.17;;;8.13;;
10144;SDS011;5113;41.822;23.564;2023-04-25T17:42:28;9.83;;;7.87;;
10144;SDS011;5113;41.822;23.564;2023-04-25T17:45:37;8.70;;;6.40;;
10144;SDS011;5113;41.822;23.564;2023-04-25T17:48:43;10.63;;;7.73;;
10144;SDS011;5113;41.822;23.564;2023-04-25T17:51:49;11.03;;;7.47;;
10144;SDS011;5113;41.822;23.564;2023-04-25T17:54:56;9.07;;;8.00;;
10144;SDS011;5113;41.822;23.564;2023-04-25T17:58:02;15.43;;;13.97;;
10144;SDS011;5113;41.822;23.564;2023-04-25T18:01:10;7.20;;;6.50;;
10144;SDS011;5113;41.822;23.564;2023-04-25T18:04:16;7.73;;;6.10;;
10144;SDS011;5113;41.822;23.564;2023-04-25T18:07:23;15.50;;;14.10;;
10144;SDS011;5113;41.822;23.564;2023-04-25T18:10:28;12.70;;;11.37;;
10144;SDS011;5113;41.822;23.564;2023-04-25T18:13:34;14.40;;;9.13;;
10144;SDS011;5113;41.822;23.564;2023-04-25T18:16:43;7.10;;;6.10;;
10144;SDS011;5113;41.822;23.564;2023-04-25T18:19:49;36.20;;;25.43;;
10144;SDS011;5113;41.822;23.564;2023-04-25T18:22:55;6.23;;;4.00;;
10144;SDS011;5113;41.822;23.564;2023-04-25T18:26:02;12.60;;;8.27;;
10144;SDS011;5113;41.822;23.564;2023-04-25T18:29:09;7.03;;;5.30;;
10144;SDS011;5113;41.822;23.564;2023-04-25T18:32:36;8.93;;;5.83;;
10144;SDS011;5113;41.822;23.564;2023-04-25T18:35:43;3.40;;;3.03;;
10144;SDS011;5113;41.822;23.564;2023-04-25T18:39:02;3.83;;;2.97;;
10144;SDS011;5113;41.822;23.564;2023-04-25T18:42:25;5.80;;;4.50;;
10144;SDS011;5113;41.822;23.564;2023-04-25T18:45:32;3.80;;;3.13;;